sensor_id;sensor_type;location;lat;lon;timestamp;pressure;altitude;pressure_sealevel;temperature;humidity
17855;BME280;9053;53.358;6.382;2023-01-10T00:02:02;100792.59;;;6.84;100.00
17855;BME280;9053;53.358;6.382;2023-01-10T00:04:32;100794.22;;;6.82;100.00
17855;BME280;9053;53.358;6.382;2023-01-10T00:07:05;100804.53;;;6.79;100.00
17855;BME280;9053;53.358;6.382;2023-01-10T00:09:35;100816.63;;;6.77;100.00
17855;BME280;9053;53.358;6.382;2023-01-10T00:12:05;100819.09;;;6.74;100.00
17855;BME280;9053;53.358;6.382;2023-01-10T00:14:47;100817.97;;;6.69;100.00
17855;BME280;9053;53.358;6.382;2023-01-10T00:17:18;100824.69;;;6.64;100.00
17855;BME280;9053;53.358;6.382;2023-01-10T00:19:48;100828.94;;;6.62;100.00
17855;BME280;9053;53.358;6.382;2023-01-10T00:22:20;100837.63;;;6.61;100.00
17855;BME280;9053;53.358;6.382;2023-01-10T00:24:51;100847.94;;;6.58;100.00
17855;BME280;9053;53.358;6.382;2023-01-10T00:27:21;100845.88;;;6.52;100.00
17855;BME280;9053;53.358;6.382;2023-01-10T00:29:51;100852.00;;;6.53;100.00
17855;BME280;9053;53.358;6.382;2023-01-10T00:32:23;100854.56;;;6.51;100.00
17855;BME280;9053;53.358;6.382;2023-01-10T00:34:53;100859.03;;;6.54;100.00
17855;BME280;9053;53.358;6.382;2023-01-10T00:37:26;100860.81;;;6.55;100.00
17855;BME280;9053;53.358;6.382;2023-01-10T00:39:55;100874.94;;;6.58;100.00
17855;BME280;9053;53.358;6.382;2023-01-10T00:42:25;100872.47;;;6.61;100.00
17855;BME280;9053;53.358;6.382;2023-01-10T00:45:08;100885.78;;;6.66;100.00
17855;BME280;9053;53.358;6.382;2023-01-10T00:47:38;100890.31;;;6.70;100.00
17855;BME280;9053;53.358;6.382;2023-01-10T00:50:09;100902.75;;;6.74;100.00
17855;BME280;9053;53.358;6.382;2023-01-10T00:52:43;100894.06;;;6.75;100.00
17855;BME280;9053;53.358;6.382;2023-01-10T00:55:12;100889.75;;;6.76;100.00
17855;BME280;9053;53.358;6.382;2023-01-10T00:57:42;100900.13;;;6.74;100.00
17855;BME280;9053;53.358;6.382;2023-01-10T01:00:12;100901.91;;;6.75;100.00
17855;BME280;9053;53.358;6.382;2023-01-10T01:02:42;100902.00;;;6.77;100.00
17855;BME280;9053;53.358;6.382;2023-01-10T01:05:12;100906.47;;;6.79;100.00
17855;BME280;9053;53.358;6.382;2023-01-10T01:07:46;100904.00;;;6.82;100.00
17855;BME280;9053;53.358;6.382;2023-01-10T01:10:17;100897.00;;;6.81;100.00
17855;BME280;9053;53.358;6.382;2023-01-10T01:12:57;100905.66;;;6.80;100.00
17855;BME280;9053;53.358;6.382;2023-01-10T01:15:27;100908.22;;;6.79;100.00
17855;BME280;9053;53.358;6.382;2023-01-10T01:17:57;100918.34;;;6.72;100.00
17855;BME280;9053;53.358;6.382;2023-01-10T01:20:27;100918.94;;;6.67;100.00
17855;BME280;9053;53.358;6.382;2023-01-10T01:23:00;100914.53;;;6.66;100.00
17855;BME280;9053;53.358;6.382;2023-01-10T01:25:30;100917.06;;;6.64;100.00
17855;BME280;9053;53.358;6.382;2023-01-10T01:28:00;100920.50;;;6.63;100.00
17855;BME280;9053;53.358;6.382;2023-01-10T01:30:30;100926.63;;;6.64;100.00
17855;BME280;9053;53.358;6.382;2023-01-10T01:33:00;100943.34;;;6.67;100.00
17855;BME280;9053;53.358;6.382;2023-01-10T01:35:30;100946.69;;;6.65;100.00
17855;BME280;9053;53.358;6.382;2023-01-10T01:38:03;100957.16;;;6.65;100.00
17855;BME280;9053;53.358;6.382;2023-01-10T01:40:33;100951.94;;;6.65;100.00
17855;BME280;9053;53.358;6.382;2023-01-10T01:43:04;100953.66;;;6.64;100.00
17855;BME280;9053;53.358;6.382;2023-01-10T01:45:36;100960.75;;;6.67;100.00
17855;BME280;9053;53.358;6.382;2023-01-10T01:48:20;100963.50;;;6.70;100.00
17855;BME280;9053;53.358;6.382;2023-01-10T01:50:55;100958.28;;;6.70;100.00
17855;BME280;9053;53.358;6.382;2023-01-10T01:53:37;100971.34;;;6.70;100.00
17855;BME280;9053;53.358;6.382;2023-01-10T01:56:11;100971.34;;;6.70;100.00
17855;BME280;9053;53.358;6.382;2023-01-10T01:58:46;100985.34;;;6.70;100.00
17855;BME280;9053;53.358;6.382;2023-01-10T02:01:18;100983.63;;;6.71;100.00
17855;BME280;9053;53.358;6.382;2023-01-10T02:03:51;100994.22;;;6.74;100.00
17855;BME280;9053;53.358;6.382;2023-01-10T02:06:23;100996.00;;;6.75;100.00
17855;BME280;9053;53.358;6.382;2023-01-10T02:09:02;100993.47;;;6.77;100.00
17855;BME280;9053;53.358;6.382;2023-01-10T02:11:35;100994.47;;;6.79;100.00
17855;BME280;9053;53.358;6.382;2023-01-10T02:14:05;100988.50;;;6.81;100.00
17855;BME280;9053;53.358;6.382;2023-01-10T02:16:36;100989.53;;;6.85;100.00
17855;BME280;9053;53.358;6.382;2023-01-10T02:19:12;100988.78;;;6.87;100.00
17855;BME280;9053;53.358;6.382;2023-01-10T02:22:06;100992.34;;;6.88;100.00
17855;BME280;9053;53.358;6.382;2023-01-10T02:25:12;100991.41;;;6.87;100.00
17855;BME280;9053;53.358;6.382;2023-01-10T02:28:06;100995.00;;;6.89;100.00
17855;BME280;9053;53.358;6.382;2023-01-10T02:31:11;101001.97;;;6.89;100.00
17855;BME280;9053;53.358;6.382;2023-01-10T02:33:46;100991.41;;;6.87;100.00
17855;BME280;9053;53.358;6.382;2023-01-10T02:36:31;100998.44;;;6.88;100.00
17855;BME280;9053;53.358;6.382;2023-01-10T02:39:07;100999.34;;;6.89;100.00
17855;BME280;9053;53.358;6.382;2023-01-10T02:41:44;100998.50;;;6.90;100.00
17855;BME280;9053;53.358;6.382;2023-01-10T02:44:19;101005.47;;;6.89;100.00
17855;BME280;9053;53.358;6.382;2023-01-10T02:46:50;101001.13;;;6.90;100.00
17855;BME280;9053;53.358;6.382;2023-01-10T02:49:23;101021.31;;;6.92;100.00
17855;BME280;9053;53.358;6.382;2023-01-10T02:51:52;101018.69;;;6.92;100.00
17855;BME280;9053;53.358;6.382;2023-01-10T02:54:25;101021.47;;;6.96;100.00
17855;BME280;9053;53.358;6.382;2023-01-10T02:57:10;101012.91;;;6.98;100.00
17855;BME280;9053;53.358;6.382;2023-01-10T03:00:03;101024.31;;;7.00;100.00
17855;BME280;9053;53.358;6.382;2023-01-10T03:03:05;101028.88;;;7.04;100.00
17855;BME280;9053;53.358;6.382;2023-01-10T03:05:49;101024.41;;;7.02;100.00
17855;BME280;9053;53.358;6.382;2023-01-10T03:08:28;101026.38;;;7.06;100.00
17855;BME280;9053;53.358;6.382;2023-01-10T03:11:01;101035.84;;;7.04;100.00
17855;BME280;9053;53.358;6.382;2023-01-10T03:13:36;101043.94;;;7.08;100.00
17855;BME280;9053;53.358;6.382;2023-01-10T03:16:12;101048.22;;;7.08;100.00
17855;BME280;9053;53.358;6.382;2023-01-10T03:18:45;101054.44;;;7.10;100.00
17855;BME280;9053;53.358;6.382;2023-01-10T03:21:21;101055.34;;;7.10;100.00
17855;BME280;9053;53.358;6.382;2023-01-10T03:23:54;101056.16;;;7.09;100.00
17855;BME280;9053;53.358;6.382;2023-01-10T03:26:29;101055.34;;;7.10;100.00
17855;BME280;9053;53.358;6.382;2023-01-10T03:29:06;101061.50;;;7.11;100.00
17855;BME280;9053;53.358;6.382;2023-01-10T03:31:39;101058.88;;;7.11;100.00
17855;BME280;9053;53.358;6.382;2023-01-10T03:34:11;101068.50;;;7.12;100.00
17855;BME280;9053;53.358;6.382;2023-01-10T03:36:49;101070.22;;;7.11;100.00
17855;BME280;9053;53.358;6.382;2023-01-10T03:39:26;101084.03;;;7.09;100.00
17855;BME280;9053;53.358;6.382;2023-01-10T03:42:06;101076.94;;;7.06;100.00
17855;BME280;9053;53.358;6.382;2023-01-10T03:44:41;101073.50;;;7.07;100.00
17855;BME280;9053;53.358;6.382;2023-01-10T03:47:20;101075.38;;;7.10;100.00
17855;BME280;9053;53.358;6.382;2023-01-10T03:49:53;101082.41;;;7.11;100.00
17855;BME280;9053;53.358;6.382;2023-01-10T03:52:28;101082.47;;;7.12;100.00
17855;BME280;9053;53.358;6.382;2023-01-10T03:54:59;101081.59;;;7.12;100.00
17855;BME280;9053;53.358;6.382;2023-01-10T03:57:29;101082.56;;;7.14;100.00
17855;BME280;9053;53.358;6.382;2023-01-10T03:59:59;101086.97;;;7.15;100.00
17855;BME280;9053;53.358;6.382;2023-01-10T04:02:30;101094.91;;;7.17;100.00
17855;BME280;9053;53.358;6.382;2023-01-10T04:05:00;101096.69;;;7.18;100.00
17855;BME280;9053;53.358;6.382;2023-01-10T04:07:33;101092.34;;;7.18;100.00
17855;BME280;9053;53.358;6.382;2023-01-10T04:10:04;101090.56;;;7.17;100.00
17855;BME280;9053;53.358;6.382;2023-01-10T04:12:34;101090.56;;;7.17;100.00
17855;BME280;9053;53.358;6.382;2023-01-10T04:15:05;101094.16;;;7.19;100.00
17855;BME280;9053;53.358;6.382;2023-01-10T04:17:35;101099.41;;;7.19;100.00
17855;BME280;9053;53.358;6.382;2023-01-10T04:20:05;101103.00;;;7.21;100.00
17855;BME280;9053;53.358;6.382;2023-01-10T04:22:38;101108.28;;;7.23;100.00
17855;BME280;9053;53.358;6.382;2023-01-10T04:25:08;101111.00;;;7.24;100.00
17855;BME280;9053;53.358;6.382;2023-01-10T04:27:38;101117.06;;;7.23;100.00
17855;BME280;9053;53.358;6.382;2023-01-10T04:30:09;101115.38;;;7.25;100.00
17855;BME280;9053;53.358;6.382;2023-01-10T04:32:39;101126.78;;;7.26;100.00
17855;BME280;9053;53.358;6.382;2023-01-10T04:35:09;101121.59;;;7.27;100.00
17855;BME280;9053;53.358;6.382;2023-01-10T04:37:42;101130.34;;;7.28;100.00
17855;BME280;9053;53.358;6.382;2023-01-10T04:40:12;101132.06;;;7.27;100.00
17855;BME280;9053;53.358;6.382;2023-01-10T04:42:45;101136.50;;;7.28;100.00
17855;BME280;9053;53.358;6.382;2023-01-10T04:45:15;101146.03;;;7.28;100.00
17855;BME280;9053;53.358;6.382;2023-01-10T04:47:50;101150.38;;;7.27;100.00
17855;BME280;9053;53.358;6.382;2023-01-10T04:50:22;101154.81;;;7.28;100.00
17855;BME280;9053;53.358;6.382;2023-01-10T04:52:54;101149.59;;;7.28;100.00
17855;BME280;9053;53.358;6.382;2023-01-10T04:55:24;101148.75;;;7.29;100.00
17855;BME280;9053;53.358;6.382;2023-01-10T04:57:54;101152.34;;;7.31;100.00
17855;BME280;9053;53.358;6.382;2023-01-10T05:00:26;101160.19;;;7.31;100.00
17855;BME280;9053;53.358;6.382;2023-01-10T05:02:56;101164.53;;;7.31;100.00
17855;BME280;9053;53.358;6.382;2023-01-10T05:05:26;101160.19;;;7.31;100.00
17855;BME280;9053;53.358;6.382;2023-01-10T05:07:59;101171.47;;;7.30;100.00
17855;BME280;9053;53.358;6.382;2023-01-10T05:10:29;101172.28;;;7.29;100.00
17855;BME280;9053;53.358;6.382;2023-01-10T05:12:59;101177.53;;;7.29;100.00
17855;BME280;9053;53.358;6.382;2023-01-10T05:15:29;101178.34;;;7.28;100.00
17855;BME280;9053;53.358;6.382;2023-01-10T05:17:59;101181.78;;;7.27;100.00
17855;BME280;9053;53.358;6.382;2023-01-10T05:20:29;101196.59;;;7.27;100.00
17855;BME280;9053;53.358;6.382;2023-01-10T05:23:01;101197.47;;;7.27;100.00
17855;BME280;9053;53.358;6.382;2023-01-10T05:25:31;101198.47;;;7.29;100.00
17855;BME280;9053;53.358;6.382;2023-01-10T05:28:01;101201.22;;;7.32;100.00
17855;BME280;9053;53.358;6.382;2023-01-10T05:30:30;101204.75;;;7.33;100.00
17855;BME280;9053;53.358;6.382;2023-01-10T05:33:02;101198.63;;;7.32;100.00
17855;BME280;9053;53.358;6.382;2023-01-10T05:35:32;101193.38;;;7.32;100.00
17855;BME280;9053;53.358;6.382;2023-01-10T05:38:05;101195.09;;;7.32;100.00
17855;BME280;9053;53.358;6.382;2023-01-10T05:40:35;101197.72;;;7.32;100.00
17855;BME280;9053;53.358;6.382;2023-01-10T05:43:05;101205.56;;;7.32;100.00
17855;BME280;9053;53.358;6.382;2023-01-10T05:45:34;101201.22;;;7.32;100.00
17855;BME280;9053;53.358;6.382;2023-01-10T05:48:05;101210.81;;;7.32;100.00
17855;BME280;9053;53.358;6.382;2023-01-10T05:50:35;101209.06;;;7.32;100.00
17855;BME280;9053;53.358;6.382;2023-01-10T05:53:07;101210.91;;;7.33;100.00
17855;BME280;9053;53.358;6.382;2023-01-10T05:55:37;101207.53;;;7.36;100.00
17855;BME280;9053;53.358;6.382;2023-01-10T05:58:07;101212.78;;;7.36;100.00
17855;BME280;9053;53.358;6.382;2023-01-10T06:00:38;101211.84;;;7.35;100.00
17855;BME280;9053;53.358;6.382;2023-01-10T06:03:08;101221.44;;;7.35;100.00
17855;BME280;9053;53.358;6.382;2023-01-10T06:05:38;101225.75;;;7.34;100.00
17855;BME280;9053;53.358;6.382;2023-01-10T06:08:10;101228.38;;;7.34;100.00
17855;BME280;9053;53.358;6.382;2023-01-10T06:10:40;101232.63;;;7.32;100.00
17855;BME280;9053;53.358;6.382;2023-01-10T06:13:10;101234.44;;;7.33;100.00
17855;BME280;9053;53.358;6.382;2023-01-10T06:15:41;101232.63;;;7.32;100.00
17855;BME280;9053;53.358;6.382;2023-01-10T06:18:12;101239.50;;;7.30;100.00
17855;BME280;9053;53.358;6.382;2023-01-10T06:20:43;101247.34;;;7.30;100.00
17855;BME280;9053;53.358;6.382;2023-01-10T06:23:15;101254.28;;;7.30;100.00
17855;BME280;9053;53.358;6.382;2023-01-10T06:25:45;101243.75;;;7.28;100.00
17855;BME280;9053;53.358;6.382;2023-01-10T06:28:15;101228.81;;;7.26;100.00
17855;BME280;9053;53.358;6.382;2023-01-10T06:30:45;101224.38;;;7.25;100.00
17855;BME280;9053;53.358;6.382;2023-01-10T06:33:15;101232.16;;;7.23;100.00
17855;BME280;9053;53.358;6.382;2023-01-10T06:35:45;101242.63;;;7.23;100.00
17855;BME280;9053;53.358;6.382;2023-01-10T06:38:17;101244.06;;;7.18;100.00
17855;BME280;9053;53.358;6.382;2023-01-10T06:40:47;101245.63;;;7.14;100.00
17855;BME280;9053;53.358;6.382;2023-01-10T06:43:17;101254.22;;;7.12;100.00
17855;BME280;9053;53.358;6.382;2023-01-10T06:45:47;101259.13;;;7.06;100.00
17855;BME280;9053;53.358;6.382;2023-01-10T06:48:17;101261.63;;;7.04;100.00
17855;BME280;9053;53.358;6.382;2023-01-10T06:50:48;101263.25;;;7.02;100.00
17855;BME280;9053;53.358;6.382;2023-01-10T06:53:21;101257.97;;;7.01;100.00
17855;BME280;9053;53.358;6.382;2023-01-10T06:55:50;101266.44;;;6.97;100.00
17855;BME280;9053;53.358;6.382;2023-01-10T06:58:23;101269.97;;;6.97;100.00
17855;BME280;9053;53.358;6.382;2023-01-10T07:00:53;101262.13;;;6.97;100.00
17855;BME280;9053;53.358;6.382;2023-01-10T07:03:23;101266.44;;;6.97;100.00
17855;BME280;9053;53.358;6.382;2023-01-10T07:05:53;101276.00;;;6.96;100.00
17855;BME280;9053;53.358;6.382;2023-01-10T07:08:25;101284.59;;;6.93;100.00
17855;BME280;9053;53.358;6.382;2023-01-10T07:10:57;101295.69;;;6.89;100.00
17855;BME280;9053;53.358;6.382;2023-01-10T07:13:28;101317.22;;;6.85;100.00
17855;BME280;9053;53.358;6.382;2023-01-10T07:16:01;101316.16;;;6.82;100.00
17855;BME280;9053;53.358;6.382;2023-01-10T07:18:32;101319.41;;;6.78;100.00
17855;BME280;9053;53.358;6.382;2023-01-10T07:21:03;101330.59;;;6.75;100.00
17855;BME280;9053;53.358;6.382;2023-01-10T07:23:36;101332.25;;;6.73;100.00
17855;BME280;9053;53.358;6.382;2023-01-10T07:26:07;101335.50;;;6.69;100.00
17855;BME280;9053;53.358;6.382;2023-01-10T07:28:37;101345.94;;;6.69;100.00
17855;BME280;9053;53.358;6.382;2023-01-10T07:31:09;101347.72;;;6.70;100.00
17855;BME280;9053;53.358;6.382;2023-01-10T07:33:40;101344.31;;;6.71;100.00
17855;BME280;9053;53.358;6.382;2023-01-10T07:36:10;101342.69;;;6.73;100.00
17855;BME280;9053;53.358;6.382;2023-01-10T07:38:43;101357.72;;;6.77;100.00
17855;BME280;9053;53.358;6.382;2023-01-10T07:41:13;101349.88;;;6.77;100.00
17855;BME280;9053;53.358;6.382;2023-01-10T07:43:42;101356.13;;;6.79;100.00
17855;BME280;9053;53.358;6.382;2023-01-10T07:46:12;101354.50;;;6.81;100.00
17855;BME280;9053;53.358;6.382;2023-01-10T07:48:42;101364.13;;;6.82;100.00
17855;BME280;9053;53.358;6.382;2023-01-10T07:51:12;101364.13;;;6.82;100.00
17855;BME280;9053;53.358;6.382;2023-01-10T07:53:45;101366.09;;;6.86;100.00
17855;BME280;9053;53.358;6.382;2023-01-10T07:56:14;101362.66;;;6.87;100.00
17855;BME280;9053;53.358;6.382;2023-01-10T07:58:44;101360.25;;;6.90;100.00
17855;BME280;9053;53.358;6.382;2023-01-10T08:01:16;101370.72;;;6.90;100.00
17855;BME280;9053;53.358;6.382;2023-01-10T08:03:46;101369.88;;;6.91;100.00
17855;BME280;9053;53.358;6.382;2023-01-10T08:06:16;101368.28;;;6.93;100.00
17855;BME280;9053;53.358;6.382;2023-01-10T08:08:49;101372.66;;;6.94;100.00
17855;BME280;9053;53.358;6.382;2023-01-10T08:11:18;101372.66;;;6.94;100.00
17855;BME280;9053;53.358;6.382;2023-01-10T08:13:48;101370.22;;;6.98;100.00
17855;BME280;9053;53.358;6.382;2023-01-10T08:16:18;101373.84;;;7.00;100.00
17855;BME280;9053;53.358;6.382;2023-01-10T08:18:48;101380.94;;;7.02;100.00
17855;BME280;9053;53.358;6.382;2023-01-10T08:21:18;101389.69;;;7.03;100.00
17855;BME280;9053;53.358;6.382;2023-01-10T08:23:50;101387.28;;;7.06;100.00
17855;BME280;9053;53.358;6.382;2023-01-10T08:26:20;101399.53;;;7.07;100.00
17855;BME280;9053;53.358;6.382;2023-01-10T08:28:50;101391.94;;;7.11;100.00
17855;BME280;9053;53.358;6.382;2023-01-10T08:31:20;101394.72;;;7.14;100.00
17855;BME280;9053;53.358;6.382;2023-01-10T08:33:50;101396.50;;;7.15;100.00
17855;BME280;9053;53.358;6.382;2023-01-10T08:36:20;101400.22;;;7.19;100.00
17855;BME280;9053;53.358;6.382;2023-01-10T08:38:53;101404.72;;;7.22;100.00
17855;BME280;9053;53.358;6.382;2023-01-10T08:41:23;101411.28;;;7.30;100.00
17855;BME280;9053;53.358;6.382;2023-01-10T08:43:53;101408.19;;;7.37;100.00
17855;BME280;9053;53.358;6.382;2023-01-10T08:46:23;101407.78;;;7.46;100.00
17855;BME280;9053;53.358;6.382;2023-01-10T08:48:53;101411.75;;;7.54;100.00
17855;BME280;9053;53.358;6.382;2023-01-10T08:51:23;101419.28;;;7.64;100.00
17855;BME280;9053;53.358;6.382;2023-01-10T08:53:55;101420.84;;;7.77;100.00
17855;BME280;9053;53.358;6.382;2023-01-10T08:56:25;101424.69;;;7.84;100.00
17855;BME280;9053;53.358;6.382;2023-01-10T08:58:56;101420.69;;;7.90;100.00
17855;BME280;9053;53.358;6.382;2023-01-10T09:01:26;101427.91;;;7.94;100.00
17855;BME280;9053;53.358;6.382;2023-01-10T09:03:57;101417.69;;;7.99;100.00
17855;BME280;9053;53.358;6.382;2023-01-10T09:06:26;101416.22;;;8.04;100.00
17855;BME280;9053;53.358;6.382;2023-01-10T09:08:59;101421.44;;;8.04;100.00
17855;BME280;9053;53.358;6.382;2023-01-10T09:11:29;101435.34;;;8.03;100.00
17855;BME280;9053;53.358;6.382;2023-01-10T09:13:59;101438.63;;;7.99;100.00
17855;BME280;9053;53.358;6.382;2023-01-10T09:16:28;101441.91;;;7.95;100.00
17855;BME280;9053;53.358;6.382;2023-01-10T09:18:58;101443.53;;;7.93;100.00
17855;BME280;9053;53.358;6.382;2023-01-10T09:21:30;101461.69;;;7.90;100.00
17855;BME280;9053;53.358;6.382;2023-01-10T09:24:02;101448.59;;;7.90;100.00
17855;BME280;9053;53.358;6.382;2023-01-10T09:26:33;101454.00;;;7.93;100.00
17855;BME280;9053;53.358;6.382;2023-01-10T09:29:03;101441.06;;;7.96;100.00
17855;BME280;9053;53.358;6.382;2023-01-10T09:31:32;101439.44;;;7.98;100.00
17855;BME280;9053;53.358;6.382;2023-01-10T09:34:02;101432.41;;;7.97;100.00
17855;BME280;9053;53.358;6.382;2023-01-10T09:36:33;101417.50;;;7.96;100.00
17855;BME280;9053;53.358;6.382;2023-01-10T09:39:05;101434.94;;;7.95;100.00
17855;BME280;9053;53.358;6.382;2023-01-10T09:41:50;101437.50;;;7.94;100.00
17855;BME280;9053;53.358;6.382;2023-01-10T09:44:34;101438.38;;;7.94;100.00
17855;BME280;9053;53.358;6.382;2023-01-10T09:47:12;101441.06;;;7.96;100.00
17855;BME280;9053;53.358;6.382;2023-01-10T09:49:58;101449.03;;;7.97;100.00
17855;BME280;9053;53.358;6.382;2023-01-10T09:52:33;101443.78;;;7.97;100.00
17855;BME280;9053;53.358;6.382;2023-01-10T09:55:16;101447.44;;;8.01;100.00
17855;BME280;9053;53.358;6.382;2023-01-10T09:57:48;101442.22;;;8.01;100.00
17855;BME280;9053;53.358;6.382;2023-01-10T10:00:22;101434.28;;;7.99;100.00
17855;BME280;9053;53.358;6.382;2023-01-10T10:02:53;101449.13;;;7.99;100.00
17855;BME280;9053;53.358;6.382;2023-01-10T10:05:25;101442.88;;;7.97;100.00
17855;BME280;9053;53.358;6.382;2023-01-10T10:07:57;101443.53;;;7.93;100.00
17855;BME280;9053;53.358;6.382;2023-01-10T10:10:38;101447.97;;;7.94;100.00
17855;BME280;9053;53.358;6.382;2023-01-10T10:13:15;101450.50;;;7.92;100.00
17855;BME280;9053;53.358;6.382;2023-01-10T10:16:00;101447.03;;;7.93;100.00
17855;BME280;9053;53.358;6.382;2023-01-10T10:18:41;101439.28;;;7.95;100.00
17855;BME280;9053;53.358;6.382;2023-01-10T10:21:18;101430.69;;;7.97;100.00
17855;BME280;9053;53.358;6.382;2023-01-10T10:24:15;101431.75;;;8.01;100.00
17855;BME280;9053;53.358;6.382;2023-01-10T10:26:57;101424.06;;;8.04;100.00
17855;BME280;9053;53.358;6.382;2023-01-10T10:29:53;101408.50;;;8.07;100.00
17855;BME280;9053;53.358;6.382;2023-01-10T10:32:35;101418.31;;;8.11;100.00
17855;BME280;9053;53.358;6.382;2023-01-10T10:35:14;101419.38;;;8.15;100.00
17855;BME280;9053;53.358;6.382;2023-01-10T10:37:50;101407.28;;;8.17;100.00
17855;BME280;9053;53.358;6.382;2023-01-10T10:40:21;101417.81;;;8.18;100.00
17855;BME280;9053;53.358;6.382;2023-01-10T10:42:59;101409.16;;;8.19;100.00
17855;BME280;9053;53.358;6.382;2023-01-10T10:45:43;101403.09;;;8.20;100.00
17855;BME280;9053;53.358;6.382;2023-01-10T10:48:17;101404.06;;;8.22;100.00
17855;BME280;9053;53.358;6.382;2023-01-10T10:50:57;101409.47;;;8.26;100.00
17855;BME280;9053;53.358;6.382;2023-01-10T10:53:30;101411.34;;;8.28;100.00
17855;BME280;9053;53.358;6.382;2023-01-10T10:56:02;101397.34;;;8.28;100.00
17855;BME280;9053;53.358;6.382;2023-01-10T10:58:37;101391.22;;;8.27;100.00
17855;BME280;9053;53.358;6.382;2023-01-10T11:01:10;101400.84;;;8.28;100.00
17855;BME280;9053;53.358;6.382;2023-01-10T11:03:43;101401.75;;;8.29;100.00
17855;BME280;9053;53.358;6.382;2023-01-10T11:06:17;101398.38;;;8.31;100.00
17855;BME280;9053;53.358;6.382;2023-01-10T11:08:51;101394.97;;;8.32;100.00
17855;BME280;9053;53.358;6.382;2023-01-10T11:11:26;101403.72;;;8.33;100.00
17855;BME280;9053;53.358;6.382;2023-01-10T11:14:00;101400.28;;;8.34;100.00
17855;BME280;9053;53.358;6.382;2023-01-10T11:16:32;101386.28;;;8.33;100.00
17855;BME280;9053;53.358;6.382;2023-01-10T11:19:13;101382.00;;;8.35;100.00
17855;BME280;9053;53.358;6.382;2023-01-10T11:21:53;101383.75;;;8.35;100.00
17855;BME280;9053;53.358;6.382;2023-01-10T11:24:29;101378.50;;;8.35;100.00
17855;BME280;9053;53.358;6.382;2023-01-10T11:27:03;101376.88;;;8.37;100.00
17855;BME280;9053;53.358;6.382;2023-01-10T11:29:42;101369.91;;;8.37;100.00
17855;BME280;9053;53.358;6.382;2023-01-10T11:32:16;101367.19;;;8.36;100.00
17855;BME280;9053;53.358;6.382;2023-01-10T11:34:49;101373.31;;;8.36;100.00
17855;BME280;9053;53.358;6.382;2023-01-10T11:37:25;101369.81;;;8.36;100.00
17855;BME280;9053;53.358;6.382;2023-01-10T11:40:15;101365.53;;;8.38;100.00
17855;BME280;9053;53.358;6.382;2023-01-10T11:42:47;101376.88;;;8.37;100.00
17855;BME280;9053;53.358;6.382;2023-01-10T11:45:25;101377.94;;;8.40;100.00
17855;BME280;9053;53.358;6.382;2023-01-10T11:48:07;101356.97;;;8.40;100.00
17855;BME280;9053;53.358;6.382;2023-01-10T11:50:40;101362.31;;;8.42;100.00
17855;BME280;9053;53.358;6.382;2023-01-10T11:53:30;101353.59;;;8.43;100.00
17855;BME280;9053;53.358;6.382;2023-01-10T11:56:04;101354.44;;;8.42;100.00
17855;BME280;9053;53.358;6.382;2023-01-10T11:58:35;101362.31;;;8.42;100.00
17855;BME280;9053;53.358;6.382;2023-01-10T12:01:28;101358.84;;;8.43;100.00
17855;BME280;9053;53.358;6.382;2023-01-10T12:03:59;101341.13;;;8.39;100.00
17855;BME280;9053;53.358;6.382;2023-01-10T12:06:29;101339.34;;;8.38;100.00
17855;BME280;9053;53.358;6.382;2023-01-10T12:09:00;101341.88;;;8.36;100.00
17855;BME280;9053;53.358;6.382;2023-01-10T12:11:31;101333.09;;;8.36;100.00
17855;BME280;9053;53.358;6.382;2023-01-10T12:14:07;101331.38;;;8.36;100.00
17855;BME280;9053;53.358;6.382;2023-01-10T12:16:57;101321.81;;;8.37;100.00
17855;BME280;9053;53.358;6.382;2023-01-10T12:19:27;101309.53;;;8.36;100.00
17855;BME280;9053;53.358;6.382;2023-01-10T12:22:01;101316.59;;;8.37;100.00
17855;BME280;9053;53.358;6.382;2023-01-10T12:24:34;101313.88;;;8.35;100.00
17855;BME280;9053;53.358;6.382;2023-01-10T12:27:10;101313.88;;;8.35;100.00
17855;BME280;9053;53.358;6.382;2023-01-10T12:29:44;101306.75;;;8.33;100.00
17855;BME280;9053;53.358;6.382;2023-01-10T12:32:22;101298.91;;;8.33;100.00
17855;BME280;9053;53.358;6.382;2023-01-10T12:34:59;101291.69;;;8.29;100.00
17855;BME280;9053;53.358;6.382;2023-01-10T12:37:36;101292.44;;;8.26;100.00
17855;BME280;9053;53.358;6.382;2023-01-10T12:40:13;101286.31;;;8.26;100.00
17855;BME280;9053;53.358;6.382;2023-01-10T12:42:50;101286.16;;;8.22;100.00
17855;BME280;9053;53.358;6.382;2023-01-10T12:45:39;101286.16;;;8.22;100.00
17855;BME280;9053;53.358;6.382;2023-01-10T12:48:17;101279.94;;;8.20;100.00
17855;BME280;9053;53.358;6.382;2023-01-10T12:50:54;101285.03;;;8.17;100.00
17855;BME280;9053;53.358;6.382;2023-01-10T12:53:29;101287.56;;;8.16;100.00
17855;BME280;9053;53.358;6.382;2023-01-10T12:56:03;101290.13;;;8.14;100.00
17855;BME280;9053;53.358;6.382;2023-01-10T12:58:39;101279.63;;;8.14;100.00
17855;BME280;9053;53.358;6.382;2023-01-10T13:01:14;101280.38;;;8.12;100.00
17855;BME280;9053;53.358;6.382;2023-01-10T13:03:52;101285.53;;;8.10;100.00
17855;BME280;9053;53.358;6.382;2023-01-10T13:06:28;101280.28;;;8.10;100.00
17855;BME280;9053;53.358;6.382;2023-01-10T13:09:03;101276.78;;;8.10;100.00
17855;BME280;9053;53.358;6.382;2023-01-10T13:11:41;101278.41;;;8.08;100.00
17855;BME280;9053;53.358;6.382;2023-01-10T13:14:16;101275.78;;;8.08;100.00
17855;BME280;9053;53.358;6.382;2023-01-10T13:16:51;101278.31;;;8.06;100.00
17855;BME280;9053;53.358;6.382;2023-01-10T13:19:26;101267.78;;;8.05;100.00
17855;BME280;9053;53.358;6.382;2023-01-10T13:22:16;101270.31;;;8.03;100.00
17855;BME280;9053;53.358;6.382;2023-01-10T13:24:56;101263.22;;;8.00;100.00
17855;BME280;9053;53.358;6.382;2023-01-10T13:27:29;101265.69;;;7.97;100.00
17855;BME280;9053;53.358;6.382;2023-01-10T13:30:01;101258.66;;;7.96;100.00
17855;BME280;9053;53.358;6.382;2023-01-10T13:32:33;101253.31;;;7.95;100.00
17855;BME280;9053;53.358;6.382;2023-01-10T13:35:15;101259.44;;;7.95;100.00